Capitol Logistics 2535


KOAK
Metropolitan Oakland International Airport
Oakland, California, US
KMEM
Memphis International Airport
Memphis, Tennessee, US

Activity Log

Date Flight Route Aircraft Duration
11/26/2019 CPX2535 HUSSH2 SYRAH Q128 VEGUC RZC DAWGG2 B763 3h 37m
11/25/2019 CPX2535 HUSSH2 SYRAH Q128 JSICA MLF DVC LBL RZC BRBBQ3 B744 3h 25m
11/21/2019 CPX2535 N0485F350 KATFH2 NTELL Q158 BIKKR Q15 CHILY J6 DRK IRW FSM BRBBQ3 B744 3h 33m
11/19/2019 CPX2535 HUSSH2 SYRAH Q128 JSICA MLF DVC LBL RZC BRBBQ3 B744 3h 16m
11/19/2019 CPX2535 HUSSH2 SYRAH Q128 VLUST RZC BRBBQ3 B763 3h 35m

Route Details

Aircraft Information
Primary: Boeing 747-400BCF
Backup: Boeing 767-300BDSF
Date Restrictions
Between:Nov 16, 2019
Dec 31, 2019
Route Data
Distance: 1561nm
Sched. Duration: 3h 35m
Avg. Duration: 3h 29m (-5m)
Times Flown: 5
Recm'd Route: HUSSH2 SYRAH Q128 JSICA MLF DVC LBL RZC BRBBQ3
Planned Altitude: 35,000ft
Origin Wx: KOAK 271553Z 00000KT 10SM SCT250 13/08 A3027 RMK AO2 SLP251 T01280083
Dest. Wx: KMEM 271554Z 29006KT 10SM FEW030 05/M04 A3035 RMK AO2 SLP279 T00501039
Notes: SEASONAL FLIGHT | FEDEX SURGE OPS CONTRACT

Financial History
Total Freight: 857,545lbs
Average Load: 171,509lbs/flt
Fuel Used: 295,732lbs
Avg. Fuel Used: 59,146lbs/flt
Fuel Expense: $275,031
Avg. Fuel Expense: $55,006
Avg. Fuel Cost: $0.93/lbs
Total Gross Income: $1,620,760
Pilot Pay: $1,085
Total Expenses: $175,302
Total Revenue: $1,166,858
Average Revenue: $324,152.01